Miriam Vale Town Of 1770, Australia

2:41 PM AEST on December 03, 2016 (GMT +1000)
Gladstone | | Change Station

Elev 62 ft 23.87 °S, 151.22 °E | Updated 41 minutes ago

Clear
Clear
86 °F
Feels Like 92 °F
N
16
Wind Variable Wind from ENE

Today
High -- | Low -- °F
--% Chance of Precip.
Yesterday
High -- | Low -- °F
Precip. -- in
Pressure 29.92 in
Visibility 6.2 miles
Clouds
Heat Index 92 °F
Dew Point 72 °F
Humidity 62%
Rainfall 0.00 in
Snow Depth Not available.
4:56 AM 6:28 PM
Waxing Crescent, 12% visible
METAR YGLA 030400Z AUTO 06014KT 9999 // NCD 30/22 Q1013
Pressure 29.92 in
Visibility 6.2 miles
Clouds
Heat Index 92 °F
Dew Point 72 °F
Humidity 62%
Rainfall 0.00 in
Snow Depth Not available.
4:56 AM 6:28 PM
Waxing Crescent, 12% visible
METAR YGLA 030400Z AUTO 06014KT 9999 // NCD 30/22 Q1013

10-Day Weather Forecast

×

Almanac

Astronomy

Dec. 03, 2016 Rise Set
Actual Time
Civil Twilight
Nautical Twilight
Astronomical Twilight
Moon
Length of Visible Light
Length of Day
Tomorrow will be .
, % of the Moon is Illuminated

Today's Extremes

Country Highs Country Lows

Community

WunderPhotos

Upload Photos

1,955,411 photos uploaded!

WunderBlog® & News

Nearby

Air Quality

  Air Quality AQ Index Pollutant
Not available.

Snow Depth

Station Depth Elevation

Earthquake Activity

City Distance Mag. Time & Date
Minimum magnitude displayed is 2.5.

Coastal Water Temperatures

Place Temperature

Stations

Nearby Weather Stations

Station Location Temp. Windchill Dew Point Humidity Wind Precip. Elev Updated Type